Terminal Aerodrome Forecast
Issued by NWS Glasgow, MT

Home | Current Version | Previous Version | Text Only | Print | Product List | Glossary On
Versions: 1 2 3 4 5 6 7 8 9 10 11 12 13
000
FTUS45 KGGW 271720
TAFGGW
TAF
KGGW 271720Z 2718/2818 10007KT P6SM SCT090
     FM280600 08009KT P6SM BKN200
     FM281200 10005KT P6SM -SHRA OVC025
     FM281500 26005KT P6SM -SHRA OVC015=

USA.gov is the U.S. government's official web portal to all federal, state and local government web resources and services.